Time;durP1;ratioP1;P1;durP2;ratioP2;P2;SDS_P1;SDS_P2;PMS_P1;PMS_P2;Temp;Humidity;BMP_temperature;BMP_pressure;BME280_temperature;BME280_humidity;BME280_pressure;Samples;Min_cycle;Max_cycle;Signal;HPM_P1;HPM_P2
2021/05/06 00:01:30;;;;;;;1.40;1.03;;;10.00;99.90;;;;;;5054814;28;21000;-78
2021/05/06 00:07:31;;;;;;;1.13;1.03;;;9.90;99.90;;;;;;5045221;28;20460;-77
2021/05/06 00:32:09;;;;;;;1.20;1.10;;;9.30;99.90;;;;;;5054885;28;20844;-76
2021/05/06 00:34:37;;;;;;;1.03;0.93;;;9.30;99.90;;;;;;5049729;28;20464;-74
2021/05/06 00:37:05;;;;;;;1.00;0.90;;;9.10;99.90;;;;;;5054569;28;20487;-75
2021/05/06 00:39:35;;;;;;;3.70;0.97;;;9.00;99.90;;;;;;5067459;28;20488;-75
2021/05/06 01:01:53;;;;;;;1.37;0.90;;;9.00;99.90;;;;;;5041635;28;20491;-76
2021/05/06 01:04:36;;;;;;;0.97;0.90;;;8.70;99.90;;;;;;5055080;28;20843;-76
2021/05/06 01:07:28;;;;;;;1.13;1.03;;;8.50;99.90;;;;;;5057480;28;20470;-77
2021/05/06 01:10:07;;;;;;;1.30;1.20;;;8.50;99.90;;;;;;5053679;28;20836;-79
2021/05/06 01:12:35;;;;;;;1.17;1.07;;;8.60;99.90;;;;;;5051284;28;20475;-74
2021/05/06 01:15:02;;;;;;;1.87;1.00;;;8.90;99.90;;;;;;5060929;28;20450;-78
2021/05/06 01:17:30;;;;;;;2.80;1.20;;;8.50;99.90;;;;;;5061783;28;20496;-74
2021/05/06 01:19:57;;;;;;;2.20;1.17;;;8.60;99.90;;;;;;5060884;28;20486;-75
2021/05/06 01:22:25;;;;;;;1.40;1.30;;;8.60;99.90;;;;;;5056880;28;20470;-75
2021/05/06 01:24:55;;;;;;;1.20;1.10;;;8.50;99.90;;;;;;5057075;28;20476;-75
2021/05/06 01:27:33;;;;;;;1.30;1.00;;;8.50;99.90;;;;;;5062850;28;20543;-75
2021/05/06 01:30:07;;;;;;;1.40;0.93;;;8.60;99.90;;;;;;5054634;28;20585;-75
2021/05/06 01:32:38;;;;;;;3.00;1.00;;;8.60;99.90;;;;;;5060762;28;20553;-76
2021/05/06 01:35:08;;;;;;;1.50;1.00;;;8.70;99.90;;;;;;5060672;28;20444;-76
2021/05/06 01:37:44;;;;;;;2.70;1.10;;;8.80;99.90;;;;;;5056004;28;20761;-75
2021/05/06 01:40:33;;;;;;;1.00;0.90;;;8.80;99.90;;;;;;5052752;28;20492;-73
2021/05/06 01:43:03;;;;;;;1.27;1.17;;;8.80;99.90;;;;;;5051170;28;20471;-75
2021/05/06 01:45:49;;;;;;;1.43;1.17;;;8.90;99.90;;;;;;5057261;28;20477;-74
2021/05/06 01:48:35;;;;;;;1.47;1.00;;;9.10;99.90;;;;;;5048435;28;20800;-75
2021/05/06 01:57:25;;;;;;;3.30;1.10;;;9.10;99.90;;;;;;5061739;28;20470;-73
2021/05/06 01:59:40;;;;;;;1.57;1.13;;;9.30;99.90;;;;;;5052104;28;20477;-73
2021/05/06 02:02:09;;;;;;;1.90;1.27;;;9.30;99.90;;;;;;5055979;28;20468;-77
2021/05/06 02:04:36;;;;;;;1.53;1.43;;;9.20;99.90;;;;;;5055654;28;20848;-78
2021/05/06 02:07:03;;;;;;;3.03;1.10;;;9.20;99.90;;;;;;5059398;28;20441;-77
2021/05/06 02:09:32;;;;;;;5.40;1.07;;;9.10;99.90;;;;;;5056861;28;21074;-76
2021/05/06 02:11:59;;;;;;;2.07;1.10;;;9.10;99.90;;;;;;5060153;28;20461;-76
2021/05/06 02:14:26;;;;;;;1.80;1.70;;;9.10;99.90;;;;;;5060098;28;20475;-77
2021/05/06 02:16:53;;;;;;;1.27;1.17;;;9.20;99.90;;;;;;5062380;28;20485;-76
2021/05/06 02:19:27;;;;;;;3.90;1.27;;;9.00;99.90;;;;;;5058122;28;20462;-75
2021/05/06 02:21:55;;;;;;;1.30;1.20;;;9.00;99.90;;;;;;5055537;28;20705;-76
2021/05/06 02:24:23;;;;;;;1.30;1.20;;;8.90;99.90;;;;;;5062344;28;20461;-77
2021/05/06 02:26:52;;;;;;;1.50;0.90;;;9.00;99.90;;;;;;5053084;28;20461;-76
2021/05/06 02:29:20;;;;;;;1.90;0.87;;;9.00;99.90;;;;;;5059845;28;20464;-76
2021/05/06 02:31:47;;;;;;;1.67;1.10;;;9.00;99.90;;;;;;5052600;28;20463;-77
2021/05/06 02:34:14;;;;;;;3.57;1.10;;;8.80;99.90;;;;;;5072286;28;20475;-76
2021/05/06 02:36:41;;;;;;;1.10;1.00;;;9.00;99.90;;;;;;5048655;28;20849;-76
2021/05/06 02:39:08;;;;;;;2.00;0.90;;;8.90;99.90;;;;;;5052771;28;20991;-74
2021/05/06 02:41:35;;;;;;;4.20;1.03;;;8.90;99.90;;;;;;5058720;28;20473;-75
2021/05/06 02:44:04;;;;;;;1.73;1.20;;;8.90;99.90;;;;;;5057368;28;20443;-73
2021/05/06 02:46:31;;;;;;;2.93;1.10;;;8.90;99.90;;;;;;5061841;28;20478;-77
2021/05/06 02:48:58;;;;;;;5.67;1.67;;;8.90;99.90;;;;;;5061877;28;20479;-76
2021/05/06 02:51:30;;;;;;;3.67;1.10;;;8.90;99.90;;;;;;5052450;28;20495;-75
2021/05/06 02:53:58;;;;;;;2.40;1.30;;;8.90;99.90;;;;;;5047280;28;20519;-76
2021/05/06 02:56:31;;;;;;;1.93;1.20;;;8.80;99.90;;;;;;5053550;28;21374;-76
2021/05/06 03:04:34;;;;;;;1.37;1.10;;;9.20;99.90;;;;;;5056561;28;20454;-73
2021/05/06 03:07:04;;;;;;;1.20;1.10;;;9.30;99.90;;;;;;5046844;28;20871;-77
2021/05/06 03:09:47;;;;;;;2.83;1.60;;;9.30;99.90;;;;;;5064258;28;20478;-74
2021/05/06 03:12:24;;;;;;;2.57;1.30;;;9.50;99.90;;;;;;5054074;28;20475;-76
2021/05/06 03:23:04;;;;;;;3.57;1.30;;;9.70;99.90;;;;;;5048558;28;20824;-77
2021/05/06 03:25:31;;;;;;;1.40;1.30;;;9.70;99.90;;;;;;5054968;28;20457;-76
2021/05/06 03:28:02;;;;;;;2.20;1.27;;;9.60;99.90;;;;;;5052973;28;20959;-76
2021/05/06 03:41:45;;;;;;;2.63;1.30;;;9.30;99.90;;;;;;5061612;28;20466;-80
2021/05/06 03:47:27;;;;;;;2.30;1.30;;;9.10;99.90;;;;;;5079273;27;20574;-74
2021/05/06 04:18:02;;;;;;;1.53;1.43;;;9.10;99.90;;;;;;5024777;28;20479;-76
2021/05/06 04:26:11;;;;;;;1.90;1.50;;;8.90;99.90;;;;;;5035039;28;20486;-77
2021/05/06 04:29:40;;;;;;;2.87;1.40;;;8.90;99.90;;;;;;5038206;28;20818;-77
2021/05/06 04:37:25;;;;;;;1.20;1.10;;;8.90;99.90;;;;;;5037802;28;20457;-78
2021/05/06 04:39:55;;;;;;;1.53;1.20;;;8.90;99.90;;;;;;5034201;28;20479;-79
2021/05/06 04:56:43;;;;;;;1.43;1.33;;;9.10;99.90;;;;;;5035046;28;20514;-78
2021/05/06 05:04:39;;;;;;;1.60;1.27;;;9.30;99.90;;;;;;5017454;28;20498;-77
2021/05/06 05:07:11;;;;;;;1.67;1.37;;;9.30;99.90;;;;;;5017346;28;20922;-77
2021/05/06 05:12:31;;;;;;;1.57;1.10;;;9.30;99.90;;;;;;5013609;28;20580;-78
2021/05/06 05:15:08;;;;;;;2.13;1.20;;;9.10;99.90;;;;;;5012708;28;20525;-77
2021/05/06 05:17:42;;;;;;;2.03;1.00;;;9.20;99.90;;;;;;5023277;28;20464;-78
2021/05/06 05:20:15;;;;;;;1.83;1.53;;;9.10;99.90;;;;;;5010512;28;20487;-77
2021/05/06 05:25:34;;;;;;;2.30;1.30;;;9.00;99.90;;;;;;5019187;28;20521;-76
2021/05/06 05:28:03;;;;;;;1.30;1.20;;;9.00;99.90;;;;;;5018744;28;20467;-76
2021/05/06 05:30:33;;;;;;;2.43;1.30;;;9.00;99.90;;;;;;5018303;28;20499;-75
2021/05/06 05:33:08;;;;;;;1.37;1.20;;;9.00;99.90;;;;;;5018246;28;20473;-76
2021/05/06 05:35:39;;;;;;;2.27;2.03;;;9.10;99.90;;;;;;5013475;28;20478;-78
2021/05/06 05:38:15;;;;;;;1.10;1.00;;;9.10;99.90;;;;;;5013722;28;20956;-76
2021/05/06 05:40:48;;;;;;;2.43;1.10;;;9.00;99.90;;;;;;5015544;28;20493;-77
2021/05/06 05:43:34;;;;;;;5.10;1.63;;;8.80;99.90;;;;;;5018553;28;20498;-78
2021/05/06 05:54:35;;;;;;;1.20;1.10;;;8.60;99.90;;;;;;5019691;28;20984;-77
2021/05/06 05:57:06;;;;;;;1.97;1.20;;;8.80;99.90;;;;;;5044324;28;21161;-77
2021/05/06 05:59:33;;;;;;;3.63;1.10;;;8.80;99.90;;;;;;5017123;28;20481;-77
2021/05/06 06:02:00;;;;;;;1.03;1.03;;;9.00;99.90;;;;;;5020653;28;21079;-78
2021/05/06 06:04:28;;;;;;;1.53;0.83;;;8.90;99.90;;;;;;5018977;28;20583;-77
2021/05/06 06:06:55;;;;;;;1.93;1.10;;;8.90;99.90;;;;;;5020887;28;20513;-77
2021/05/06 06:09:23;;;;;;;3.07;1.13;;;8.90;99.90;;;;;;5016914;28;20458;-77
2021/05/06 06:11:50;;;;;;;1.43;1.17;;;8.80;99.90;;;;;;5020127;28;20476;-76
2021/05/06 06:14:22;;;;;;;2.60;1.00;;;8.90;99.90;;;;;;5020097;28;20476;-77
2021/05/06 06:16:49;;;;;;;2.90;1.03;;;8.80;99.90;;;;;;5022157;28;20482;-77
2021/05/06 06:19:18;;;;;;;2.37;1.23;;;8.70;99.90;;;;;;5019255;28;20480;-77
2021/05/06 06:21:49;;;;;;;2.60;1.53;;;8.80;99.90;;;;;;5028239;28;20451;-79
2021/05/06 06:24:16;;;;;;;3.60;1.10;;;8.90;99.90;;;;;;5016620;28;20481;-78
2021/05/06 06:26:43;;;;;;;3.13;1.10;;;8.70;99.90;;;;;;5018090;28;20468;-79
2021/05/06 06:29:13;;;;;;;1.30;1.20;;;8.90;99.90;;;;;;5014907;28;20879;-79
2021/05/06 06:31:43;;;;;;;1.73;1.10;;;8.90;99.90;;;;;;5018119;28;20520;-76
2021/05/06 06:34:11;;;;;;;6.47;1.20;;;8.90;99.90;;;;;;5014083;28;20571;-76
2021/05/06 06:36:39;;;;;;;1.77;1.20;;;9.30;99.90;;;;;;5020806;28;20453;-76
2021/05/06 06:39:06;;;;;;;2.87;1.50;;;9.00;99.90;;;;;;5018670;28;20490;-77
2021/05/06 06:41:34;;;;;;;2.80;1.47;;;9.10;99.90;;;;;;5019096;28;20549;-77
2021/05/06 06:44:02;;;;;;;2.33;1.40;;;9.20;99.90;;;;;;5017626;28;20474;-77
2021/05/06 06:46:29;;;;;;;2.40;1.00;;;9.40;99.90;;;;;;5021256;28;20494;-75
2021/05/06 06:48:58;;;;;;;4.30;2.30;;;9.10;99.90;;;;;;5016135;28;20466;-76
2021/05/06 06:51:25;;;;;;;3.70;1.30;;;9.20;99.90;;;;;;5019400;28;20494;-76
2021/05/06 06:53:52;;;;;;;2.57;1.33;;;9.30;99.90;;;;;;5018564;28;20486;-76
2021/05/06 06:56:19;;;;;;;1.90;1.43;;;9.10;99.90;;;;;;5012470;28;20464;-75
2021/05/06 06:58:49;;;;;;;2.63;1.23;;;9.10;99.90;;;;;;5015620;28;20480;-76
2021/05/06 07:01:16;;;;;;;3.00;1.80;;;9.00;99.90;;;;;;5016633;28;20489;-76
2021/05/06 07:03:44;;;;;;;1.30;1.20;;;9.10;99.90;;;;;;5011376;28;20464;-76
2021/05/06 07:06:13;;;;;;;4.17;2.20;;;9.10;99.90;;;;;;5012918;28;21070;-77
2021/05/06 07:08:43;;;;;;;1.70;1.33;;;9.10;99.90;;;;;;5019637;28;21224;-76
2021/05/06 07:11:10;;;;;;;7.13;2.03;;;9.10;99.90;;;;;;5020416;28;20489;-76
2021/05/06 07:13:37;;;;;;;1.47;1.30;;;9.10;99.90;;;;;;5019294;28;20488;-78
2021/05/06 07:16:06;;;;;;;1.93;1.40;;;9.20;99.90;;;;;;5019595;28;20462;-77
2021/05/06 07:18:34;;;;;;;4.30;1.50;;;9.30;99.90;;;;;;5017657;28;20478;-76
2021/05/06 07:21:04;;;;;;;4.80;1.50;;;9.40;99.90;;;;;;5019133;28;20519;-76
2021/05/06 07:23:34;;;;;;;2.70;2.00;;;9.60;99.90;;;;;;5020078;28;20459;-76
2021/05/06 07:26:04;;;;;;;3.83;2.23;;;9.40;99.90;;;;;;5018183;28;20497;-76
2021/05/06 07:28:35;;;;;;;2.37;1.20;;;9.50;99.90;;;;;;5018943;28;20456;-76
2021/05/06 07:31:07;;;;;;;3.07;1.30;;;9.60;99.90;;;;;;5018140;28;20481;-76
2021/05/06 07:33:39;;;;;;;2.07;1.80;;;9.70;99.90;;;;;;5019852;28;21015;-75
2021/05/06 07:36:11;;;;;;;3.20;1.40;;;9.90;99.90;;;;;;5019102;28;20493;-77
2021/05/06 07:38:42;;;;;;;4.40;1.90;;;10.10;99.90;;;;;;5014356;28;20490;-78
2021/05/06 07:41:14;;;;;;;3.60;1.73;;;10.20;99.90;;;;;;5020340;28;21005;-77
2021/05/06 07:43:44;;;;;;;3.10;1.03;;;10.30;99.90;;;;;;5047995;28;20505;-78
2021/05/06 07:46:16;;;;;;;1.80;1.30;;;10.40;99.90;;;;;;5019501;28;20637;-77
2021/05/06 07:48:49;;;;;;;2.07;1.30;;;10.60;99.90;;;;;;5015149;28;20477;-77
2021/05/06 07:51:20;;;;;;;2.30;1.33;;;10.80;99.90;;;;;;5011493;28;20491;-78
2021/05/06 07:53:53;;;;;;;3.53;1.63;;;10.80;99.90;;;;;;5020432;28;20480;-77
2021/05/06 07:56:26;;;;;;;2.80;1.70;;;10.80;99.90;;;;;;5033557;28;20853;-77
2021/05/06 07:58:53;;;;;;;1.80;1.00;;;10.90;99.90;;;;;;5010316;28;20507;-80
2021/05/06 08:01:20;;;;;;;3.43;1.20;;;10.90;99.90;;;;;;5016244;28;20482;-77
2021/05/06 08:03:52;;;;;;;2.63;1.50;;;10.80;99.90;;;;;;5008805;28;21113;-78
2021/05/06 08:06:20;;;;;;;2.07;1.20;;;10.90;99.90;;;;;;5017328;28;20478;-78
2021/05/06 08:08:52;;;;;;;3.83;1.20;;;11.00;99.90;;;;;;5015922;28;20463;-78
2021/05/06 08:11:21;;;;;;;1.63;1.40;;;11.00;99.90;;;;;;5018693;28;20906;-76
2021/05/06 08:13:49;;;;;;;2.83;1.37;;;11.10;99.90;;;;;;5008483;28;20467;-78
2021/05/06 08:16:17;;;;;;;3.70;1.30;;;11.00;99.90;;;;;;5016951;28;20460;-76
2021/05/06 08:18:47;;;;;;;5.27;1.40;;;11.00;99.90;;;;;;5017374;28;20833;-76
2021/05/06 08:21:15;;;;;;;9.23;1.37;;;11.10;99.90;;;;;;5015770;28;20474;-78
2021/05/06 08:23:43;;;;;;;5.13;1.53;;;11.20;99.90;;;;;;5034215;28;20470;-77
2021/05/06 08:26:11;;;;;;;2.07;1.57;;;11.10;99.90;;;;;;5052055;28;20859;-77
2021/05/06 08:28:50;;;;;;;2.60;1.30;;;11.20;99.90;;;;;;5002097;28;20514;-75
2021/05/06 08:31:18;;;;;;;4.27;1.60;;;11.20;99.90;;;;;;5017543;28;20886;-77
2021/05/06 08:33:45;;;;;;;4.30;1.40;;;11.00;99.90;;;;;;5021438;28;20472;-78
2021/05/06 08:36:13;;;;;;;2.20;1.30;;;11.10;99.90;;;;;;5021345;28;20458;-78
2021/05/06 08:38:41;;;;;;;2.90;2.00;;;11.10;99.90;;;;;;5021620;28;20877;-78
2021/05/06 08:41:09;;;;;;;3.10;1.77;;;11.10;99.90;;;;;;5053512;28;20474;-83
2021/05/06 08:43:38;;;;;;;2.40;1.47;;;11.10;99.90;;;;;;5018122;28;20635;-80
2021/05/06 08:46:07;;;;;;;3.77;1.77;;;11.20;99.90;;;;;;5050304;28;20477;-80
2021/05/06 08:48:54;;;;;;;2.70;1.40;;;11.10;99.90;;;;;;5017921;28;20455;-80
2021/05/06 08:51:23;;;;;;;3.10;1.63;;;11.10;99.90;;;;;;5023264;28;20574;-79
2021/05/06 08:53:51;;;;;;;5.47;1.40;;;11.10;99.90;;;;;;5022519;28;21223;-80
2021/05/06 08:56:18;;;;;;;6.70;2.23;;;11.10;99.90;;;;;;5022931;28;20461;-80
2021/05/06 08:58:46;;;;;;;4.23;2.13;;;11.20;99.90;;;;;;5019361;28;20490;-80
2021/05/06 09:01:15;;;;;;;2.47;1.30;;;11.30;99.90;;;;;;5022796;28;20484;-79
2021/05/06 09:03:42;;;;;;;3.07;1.70;;;11.30;99.90;;;;;;5017869;28;20983;-80
2021/05/06 09:06:16;;;;;;;3.80;1.40;;;11.30;99.90;;;;;;5016218;28;20591;-82
2021/05/06 09:08:44;;;;;;;3.43;1.20;;;11.40;99.90;;;;;;5028941;28;20590;-80
2021/05/06 09:11:13;;;;;;;6.33;1.90;;;11.40;99.90;;;;;;5020016;28;20479;-83
2021/05/06 09:13:41;;;;;;;2.20;1.20;;;11.50;99.90;;;;;;5017085;28;20491;-77
2021/05/06 09:16:08;;;;;;;2.43;1.40;;;11.40;99.90;;;;;;5018233;28;20862;-79
2021/05/06 09:18:42;;;;;;;2.30;1.73;;;11.40;99.90;;;;;;5010620;28;20473;-77
2021/05/06 09:21:26;;;;;;;3.27;1.70;;;11.30;99.90;;;;;;5019408;28;20483;-79
2021/05/06 09:24:12;;;;;;;4.13;1.70;;;11.30;99.90;;;;;;5020100;28;20467;-78
2021/05/06 09:26:41;;;;;;;1.90;1.63;;;11.40;99.90;;;;;;5021123;28;20491;-78
2021/05/06 09:29:10;;;;;;;2.70;1.70;;;11.40;99.90;;;;;;5052741;28;20466;-75
2021/05/06 09:31:39;;;;;;;2.80;1.77;;;11.30;99.90;;;;;;5024261;28;20453;-77
2021/05/06 09:34:09;;;;;;;3.00;1.50;;;11.30;99.90;;;;;;5019098;28;20475;-79
2021/05/06 09:36:38;;;;;;;2.93;2.50;;;11.20;99.90;;;;;;5018425;28;20553;-79
2021/05/06 09:39:09;;;;;;;2.63;1.53;;;11.20;99.90;;;;;;5015339;28;20472;-79
2021/05/06 09:41:38;;;;;;;2.23;1.67;;;11.20;99.90;;;;;;5018767;28;20507;-80
2021/05/06 09:44:10;;;;;;;6.63;1.60;;;11.20;99.90;;;;;;5021126;28;20485;-80
2021/05/06 09:46:56;;;;;;;3.10;1.47;;;11.20;99.90;;;;;;5055731;28;20898;-84
2021/05/06 09:49:26;;;;;;;1.40;1.30;;;11.10;99.90;;;;;;5021706;28;20463;-80
2021/05/06 09:51:57;;;;;;;3.63;1.77;;;11.00;99.90;;;;;;5022360;28;20464;-81
2021/05/06 09:54:27;;;;;;;2.53;1.50;;;10.90;99.90;;;;;;5021443;28;20512;-81
2021/05/06 09:56:57;;;;;;;2.80;1.70;;;10.90;99.90;;;;;;5022081;28;20744;-80
2021/05/06 09:59:27;;;;;;;1.93;1.37;;;11.00;99.90;;;;;;5022787;28;20466;-80
2021/05/06 10:02:07;;;;;;;2.70;1.60;;;11.00;99.90;;;;;;5018252;28;21011;-81
2021/05/06 10:04:37;;;;;;;2.70;1.50;;;10.70;1.00;;;;;;5020739;28;20810;-79
2021/05/06 10:07:14;;;;;;;2.50;1.40;;;10.70;1.00;;;;;;5022652;28;20602;-82
2021/05/06 10:09:51;;;;;;;2.63;1.43;;;10.70;1.00;;;;;;5051856;28;20498;-79
2021/05/06 10:12:18;;;;;;;2.10;1.10;;;10.50;1.00;;;;;;5022282;28;20467;-82
2021/05/06 10:14:46;;;;;;;3.53;3.43;;;10.40;1.00;;;;;;5023070;28;20905;-83
2021/05/06 10:17:15;;;;;;;2.47;1.20;;;10.40;1.00;;;;;;5023326;28;20447;-82
2021/05/06 10:19:45;;;;;;;1.73;0.90;;;10.40;1.00;;;;;;5024029;28;20228;-81
2021/05/06 10:22:15;;;;;;;1.73;1.00;;;10.50;1.00;;;;;;5029638;28;20463;-80
2021/05/06 10:24:44;;;;;;;2.63;1.10;;;10.50;1.00;;;;;;5020552;28;20461;-82
2021/05/06 10:27:13;;;;;;;3.80;1.10;;;10.40;1.00;;;;;;5011566;28;22535;-79
2021/05/06 10:29:42;;;;;;;1.67;1.10;;;10.30;1.00;;;;;;5020005;28;20437;-79
2021/05/06 10:32:11;;;;;;;1.57;0.90;;;10.40;1.00;;;;;;5019929;28;20245;-81
2021/05/06 10:34:39;;;;;;;1.53;0.90;;;10.50;99.90;;;;;;5013536;28;20817;-81
2021/05/06 10:37:08;;;;;;;1.70;1.40;;;10.40;99.90;;;;;;5018481;28;20462;-80
2021/05/06 10:39:40;;;;;;;1.37;1.00;;;10.40;99.90;;;;;;5015438;28;20484;-80
2021/05/06 10:42:29;;;;;;;1.63;1.00;;;10.40;99.90;;;;;;5016624;28;20974;-80
2021/05/06 10:44:58;;;;;;;1.40;1.00;;;10.70;99.90;;;;;;5022995;28;20473;-81
2021/05/06 10:47:56;;;;;;;1.43;0.90;;;10.60;99.90;;;;;;5022079;28;20479;-81
2021/05/06 10:50:33;;;;;;;2.30;1.13;;;10.60;99.90;;;;;;4999503;28;21300;-80
2021/05/06 10:53:01;;;;;;;1.83;1.37;;;10.60;1.00;;;;;;5020730;28;20462;-80
2021/05/06 10:55:44;;;;;;;1.60;1.50;;;10.40;1.00;;;;;;5012128;28;20827;-79
2021/05/06 10:58:33;;;;;;;1.87;1.30;;;10.30;1.00;;;;;;5020074;28;20456;-83
2021/05/06 11:01:17;;;;;;;1.00;0.83;;;10.50;1.00;;;;;;5025155;28;20506;-79
2021/05/06 11:04:00;;;;;;;1.57;1.10;;;10.30;99.90;;;;;;5021460;28;20478;-79
2021/05/06 11:06:36;;;;;;;1.10;1.00;;;10.10;1.00;;;;;;5019716;28;20487;-81
2021/05/06 11:09:42;;;;;;;1.40;1.30;;;10.20;1.00;;;;;;5023423;28;20533;-81
2021/05/06 11:12:32;;;;;;;1.93;1.00;;;10.20;1.00;;;;;;5005139;28;20459;-80
2021/05/06 11:15:31;;;;;;;1.43;1.33;;;10.20;1.00;;;;;;5042793;28;20469;-79
2021/05/06 11:18:00;;;;;;;1.00;0.90;;;10.40;1.00;;;;;;5023677;28;21338;-80
2021/05/06 11:20:46;;;;;;;1.43;1.00;;;10.60;99.90;;;;;;5018735;28;21300;-79
2021/05/06 11:23:29;;;;;;;2.30;0.90;;;10.60;99.90;;;;;;5021561;28;20458;-80
2021/05/06 11:26:15;;;;;;;1.27;1.00;;;10.60;99.90;;;;;;5020407;28;20546;-80
2021/05/06 11:28:50;;;;;;;1.03;0.70;;;10.80;99.90;;;;;;5021160;28;20985;-80
2021/05/06 11:31:50;;;;;;;0.70;0.70;;;10.90;99.90;;;;;;5022374;28;20928;-79
2021/05/06 11:34:42;;;;;;;0.70;0.70;;;10.80;99.90;;;;;;5013081;28;20492;-80
2021/05/06 11:37:18;;;;;;;0.80;0.80;;;10.60;99.90;;;;;;5020092;28;20456;-78
2021/05/06 11:39:58;;;;;;;0.83;0.80;;;10.60;99.90;;;;;;5020742;28;20925;-81
2021/05/06 11:42:29;;;;;;;0.63;0.63;;;10.60;99.90;;;;;;5023480;28;20468;-80
2021/05/06 11:45:11;;;;;;;0.70;0.60;;;10.60;99.90;;;;;;5021779;28;21394;-79
2021/05/06 11:47:38;;;;;;;0.73;0.67;;;10.60;99.90;;;;;;5018929;28;20482;-80
2021/05/06 11:50:22;;;;;;;0.80;0.80;;;10.70;99.90;;;;;;5020570;28;21026;-79
2021/05/06 11:52:49;;;;;;;0.80;0.70;;;10.80;99.90;;;;;;5016365;28;20459;-79
2021/05/06 11:55:32;;;;;;;0.80;0.80;;;10.80;99.90;;;;;;5019030;28;20465;-79
2021/05/06 11:58:00;;;;;;;0.60;0.60;;;10.90;99.90;;;;;;5018900;28;20463;-79
2021/05/06 12:00:29;;;;;;;0.80;0.70;;;11.00;99.90;;;;;;5019522;28;21125;-79
2021/05/06 12:03:01;;;;;;;0.70;0.70;;;10.90;99.90;;;;;;5020010;28;20463;-78
2021/05/06 12:05:48;;;;;;;0.80;0.80;;;10.80;99.90;;;;;;5018251;28;20507;-77
2021/05/06 12:08:16;;;;;;;1.63;1.00;;;10.80;99.90;;;;;;5023499;28;20502;-79
2021/05/06 12:10:43;;;;;;;1.60;0.80;;;10.90;99.90;;;;;;5021661;28;21429;-79
2021/05/06 12:13:11;;;;;;;0.90;0.90;;;10.90;99.90;;;;;;5022847;28;20922;-77
2021/05/06 12:15:38;;;;;;;0.80;0.80;;;10.90;99.90;;;;;;5020308;28;20476;-76
2021/05/06 12:18:19;;;;;;;1.10;0.70;;;11.00;99.90;;;;;;5022046;28;20469;-76
2021/05/06 12:20:55;;;;;;;1.47;0.70;;;10.80;99.90;;;;;;5022555;28;20484;-77
2021/05/06 12:23:24;;;;;;;0.97;0.97;;;10.80;99.90;;;;;;5020866;28;20470;-77
2021/05/06 12:25:51;;;;;;;1.30;0.80;;;10.90;99.90;;;;;;5050281;28;20473;-77
2021/05/06 12:28:19;;;;;;;1.00;0.90;;;11.00;99.90;;;;;;5020851;28;21044;-77
2021/05/06 12:30:47;;;;;;;0.73;0.73;;;11.10;99.90;;;;;;5036878;28;20494;-77
2021/05/06 12:33:28;;;;;;;0.87;0.87;;;11.10;99.90;;;;;;5018315;28;21217;-77
2021/05/06 12:35:56;;;;;;;0.90;0.80;;;11.20;99.90;;;;;;5022603;28;20468;-76
2021/05/06 12:38:27;;;;;;;0.90;0.90;;;11.10;99.90;;;;;;5021769;28;20562;-78
2021/05/06 12:40:55;;;;;;;0.97;0.83;;;11.10;99.90;;;;;;5043090;28;20485;-78
2021/05/06 12:43:29;;;;;;;1.13;0.80;;;11.00;99.90;;;;;;5024523;28;20497;-80
2021/05/06 12:46:06;;;;;;;1.33;1.07;;;10.90;99.90;;;;;;5038433;28;20477;-79
2021/05/06 12:48:44;;;;;;;1.50;0.80;;;10.80;99.90;;;;;;5020430;28;20459;-80
2021/05/06 12:51:14;;;;;;;1.10;1.00;;;10.80;99.90;;;;;;5044374;28;20490;-79
2021/05/06 12:53:59;;;;;;;0.97;0.83;;;10.70;1.00;;;;;;5038495;28;20831;-78
2021/05/06 12:56:27;;;;;;;0.80;0.70;;;10.60;1.00;;;;;;5022025;28;20787;-79
2021/05/06 12:58:56;;;;;;;0.83;0.83;;;10.80;1.00;;;;;;5018094;28;20463;-79
2021/05/06 13:01:31;;;;;;;1.13;1.10;;;10.90;1.00;;;;;;5021503;28;21057;-78
2021/05/06 13:04:01;;;;;;;1.37;1.00;;;10.80;1.00;;;;;;5020552;28;20465;-79
2021/05/06 13:06:33;;;;;;;1.60;1.20;;;10.90;1.00;;;;;;5017322;28;20473;-78
2021/05/06 13:09:00;;;;;;;3.07;2.23;;;10.90;1.00;;;;;;5017183;28;20501;-79
2021/05/06 13:11:28;;;;;;;2.30;1.17;;;10.90;1.00;;;;;;5021972;28;20542;-77
2021/05/06 13:13:59;;;;;;;1.30;1.20;;;10.80;1.00;;;;;;5013695;28;20455;-77
2021/05/06 13:16:38;;;;;;;1.90;1.00;;;10.80;99.90;;;;;;5019764;28;21008;-79
2021/05/06 13:19:07;;;;;;;1.90;1.00;;;11.10;99.90;;;;;;5020762;28;20464;-79
2021/05/06 13:21:34;;;;;;;1.10;1.00;;;10.90;99.90;;;;;;5019556;28;20493;-78
2021/05/06 13:24:04;;;;;;;1.00;0.90;;;10.90;99.90;;;;;;5019523;28;20814;-78
2021/05/06 13:26:34;;;;;;;1.40;1.13;;;11.00;99.90;;;;;;5020335;28;20460;-78
2021/05/06 13:29:04;;;;;;;1.40;1.27;;;11.00;99.90;;;;;;5020749;28;21009;-79
2021/05/06 13:31:36;;;;;;;1.03;1.00;;;10.80;99.90;;;;;;5020780;28;21339;-79
2021/05/06 13:34:13;;;;;;;1.37;1.23;;;10.90;1.00;;;;;;5022197;28;20468;-78
2021/05/06 13:36:42;;;;;;;1.77;1.30;;;10.90;1.00;;;;;;5021495;28;20562;-78
2021/05/06 13:39:11;;;;;;;1.93;1.20;;;10.70;91.50;;;;;;5016395;28;20488;-77
2021/05/06 13:41:41;;;;;;;1.90;1.30;;;10.60;1.00;;;;;;5008769;28;21388;-77
2021/05/06 13:44:10;;;;;;;1.30;1.20;;;10.50;91.60;;;;;;5008626;28;20467;-77
2021/05/06 13:46:46;;;;;;;2.63;1.50;;;10.50;1.00;;;;;;5008723;28;20494;-78
2021/05/06 13:49:14;;;;;;;1.73;1.13;;;10.60;1.00;;;;;;5017416;28;20470;-78
2021/05/06 13:51:41;;;;;;;1.10;1.10;;;10.70;1.00;;;;;;5018794;28;20460;-77
2021/05/06 13:54:08;;;;;;;1.50;1.40;;;10.70;99.90;;;;;;5019177;28;20482;-76
2021/05/06 13:56:35;;;;;;;1.60;1.17;;;10.50;99.90;;;;;;5018131;28;20485;-76
2021/05/06 13:59:02;;;;;;;3.67;1.70;;;10.40;99.90;;;;;;5019571;28;20468;-76
2021/05/06 14:01:31;;;;;;;1.97;1.77;;;10.20;99.90;;;;;;5018112;28;21170;-77
2021/05/06 14:03:58;;;;;;;1.73;1.40;;;10.30;99.90;;;;;;5020199;28;20471;-76
2021/05/06 14:06:26;;;;;;;1.60;0.90;;;10.40;1.00;;;;;;5011824;28;21026;-75
2021/05/06 14:08:53;;;;;;;0.83;0.83;;;10.20;1.00;;;;;;5017188;28;20464;-78
2021/05/06 14:11:20;;;;;;;1.53;0.80;;;10.00;99.90;;;;;;5016770;28;20493;-76
2021/05/06 14:14:01;;;;;;;1.83;0.83;;;10.10;1.00;;;;;;5021603;28;20462;-76
2021/05/06 14:16:28;;;;;;;0.90;0.90;;;10.10;99.90;;;;;;5019748;28;20467;-77
2021/05/06 14:18:57;;;;;;;1.20;1.10;;;10.20;99.90;;;;;;5017805;28;20487;-76
2021/05/06 14:21:25;;;;;;;1.70;1.03;;;10.20;99.90;;;;;;5018858;28;20491;-77
2021/05/06 14:23:52;;;;;;;0.90;0.90;;;10.00;99.90;;;;;;5023833;28;20642;-75
2021/05/06 14:26:21;;;;;;;0.70;0.70;;;10.00;1.00;;;;;;5018969;28;21019;-78
2021/05/06 14:28:48;;;;;;;1.57;1.03;;;9.90;99.90;;;;;;5021663;28;20839;-77
2021/05/06 14:31:15;;;;;;;1.87;0.80;;;10.00;6.90;;;;;;5018509;28;20627;-76
2021/05/06 14:33:43;;;;;;;0.80;0.80;;;9.90;1.00;;;;;;5017509;28;21040;-77
2021/05/06 14:36:12;;;;;;;1.47;0.80;;;9.80;99.90;;;;;;5018848;28;20467;-76
2021/05/06 14:38:40;;;;;;;0.80;0.80;;;9.80;30.50;;;;;;5025787;28;20965;-77
2021/05/06 14:41:08;;;;;;;0.80;0.80;;;10.00;99.90;;;;;;5018925;28;20494;-76
2021/05/06 14:43:36;;;;;;;1.03;0.70;;;10.00;99.90;;;;;;5020540;28;20465;-76
2021/05/06 14:46:03;;;;;;;0.70;0.70;;;10.00;99.90;;;;;;5020447;28;20474;-76
2021/05/06 14:48:31;;;;;;;2.20;0.70;;;9.90;1.00;;;;;;5017549;28;20456;-76
2021/05/06 14:50:59;;;;;;;0.80;0.80;;;10.00;1.00;;;;;;5018810;28;20227;-75
2021/05/06 14:53:29;;;;;;;0.90;0.80;;;10.10;99.90;;;;;;5015518;28;20988;-76
2021/05/06 14:55:57;;;;;;;0.80;0.80;;;10.10;1.00;;;;;;5012799;28;20476;-77
2021/05/06 14:58:28;;;;;;;0.90;0.77;;;10.00;1.00;;;;;;5023397;28;20461;-78
2021/05/06 15:00:56;;;;;;;0.70;0.70;;;9.70;1.00;;;;;;5012328;28;20547;-78
2021/05/06 15:03:27;;;;;;;0.60;0.60;;;9.60;1.00;;;;;;5015728;28;20461;-77
2021/05/06 15:05:55;;;;;;;0.90;0.70;;;9.70;99.90;;;;;;5015440;28;20465;-78
2021/05/06 15:08:22;;;;;;;3.10;0.83;;;9.80;1.00;;;;;;5014246;28;20230;-79
2021/05/06 15:10:50;;;;;;;0.80;0.80;;;9.90;80.30;;;;;;5011132;28;20497;-80
2021/05/06 15:13:17;;;;;;;0.70;0.60;;;9.90;99.90;;;;;;5014447;28;20471;-79
2021/05/06 15:15:44;;;;;;;0.90;0.57;;;10.10;48.80;;;;;;5016343;28;20457;-78
2021/05/06 15:18:12;;;;;;;0.60;0.60;;;10.30;99.90;;;;;;5027683;28;20208;-76
2021/05/06 15:20:39;;;;;;;0.80;0.70;;;10.40;99.90;;;;;;5014307;28;20490;-78
2021/05/06 15:23:06;;;;;;;1.00;0.80;;;10.50;99.90;;;;;;5016868;28;20474;-78
2021/05/06 15:25:33;;;;;;;0.60;0.60;;;10.50;1.00;;;;;;5016756;28;20478;-80
2021/05/06 15:28:02;;;;;;;0.70;0.70;;;10.50;1.00;;;;;;5016007;28;20985;-78
2021/05/06 15:30:29;;;;;;;0.97;0.70;;;10.60;99.90;;;;;;5014765;28;20529;-78
2021/05/06 15:32:59;;;;;;;0.80;0.80;;;10.30;1.00;;;;;;5016466;28;20471;-77
2021/05/06 15:35:32;;;;;;;0.97;0.80;;;10.20;99.90;;;;;;5013164;28;20546;-76
2021/05/06 15:37:59;;;;;;;1.10;0.90;;;10.10;1.00;;;;;;5014349;28;21020;-77
2021/05/06 15:40:27;;;;;;;2.27;2.17;;;10.20;39.60;;;;;;5017396;28;20491;-76
2021/05/06 15:43:02;;;;;;;1.27;1.10;;;10.30;1.00;;;;;;5016655;28;21304;-78
2021/05/06 15:45:29;;;;;;;1.20;1.10;;;10.20;99.90;;;;;;5017396;28;20484;-78
2021/05/06 15:47:56;;;;;;;3.00;1.87;;;10.20;1.00;;;;;;5012022;28;20851;-77